sensor_id;sensor_type;location;lat;lon;timestamp;pressure;altitude;pressure_sealevel;temperature;humidity
46583;BME280;32309;48.858;8.252;2023-09-12T00:00:40;99820.72;;;21.60;65.20
46583;BME280;32309;48.858;8.252;2023-09-12T00:02:52;99824.50;;;21.50;69.11
46583;BME280;32309;48.858;8.252;2023-09-12T00:04:53;99823.50;;;21.51;67.82
46583;BME280;32309;48.858;8.252;2023-09-12T00:06:59;99818.59;;;21.48;69.78
46583;BME280;32309;48.858;8.252;2023-09-12T00:09:00;99821.22;;;21.48;70.24
46583;BME280;32309;48.858;8.252;2023-09-12T00:11:01;99819.41;;;21.48;69.59
46583;BME280;32309;48.858;8.252;2023-09-12T00:13:11;99813.50;;;21.46;69.51
46583;BME280;32309;48.858;8.252;2023-09-12T00:15:11;99816.31;;;21.44;68.84
46583;BME280;32309;48.858;8.252;2023-09-12T00:17:14;99821.09;;;21.41;69.13
46583;BME280;32309;48.858;8.252;2023-09-12T00:19:24;99812.50;;;21.39;69.82
46583;BME280;32309;48.858;8.252;2023-09-12T00:23:47;99816.34;;;21.28;69.62
46583;BME280;32309;48.858;8.252;2023-09-12T00:25:49;99810.13;;;21.21;68.12
46583;BME280;32309;48.858;8.252;2023-09-12T00:27:57;99814.22;;;21.15;70.82
46583;BME280;32309;48.858;8.252;2023-09-12T00:30:08;99814.22;;;21.15;68.54
46583;BME280;32309;48.858;8.252;2023-09-12T00:32:11;99821.00;;;21.09;70.85
46583;BME280;32309;48.858;8.252;2023-09-12T00:34:19;99816.38;;;21.03;71.24
46583;BME280;32309;48.858;8.252;2023-09-12T00:36:39;99815.56;;;21.03;69.42
46583;BME280;32309;48.858;8.252;2023-09-12T00:38:40;99819.19;;;21.02;69.91
46583;BME280;32309;48.858;8.252;2023-09-12T00:40:43;99817.53;;;21.01;71.54
46583;BME280;32309;48.858;8.252;2023-09-12T00:42:43;99822.00;;;21.00;71.57
46583;BME280;32309;48.858;8.252;2023-09-12T00:44:46;99821.03;;;21.01;68.90
46583;BME280;32309;48.858;8.252;2023-09-12T00:46:49;99817.22;;;21.04;71.74
46583;BME280;32309;48.858;8.252;2023-09-12T00:48:51;99812.09;;;21.02;69.85
46583;BME280;32309;48.858;8.252;2023-09-12T00:51:06;99810.66;;;21.00;69.21
46583;BME280;32309;48.858;8.252;2023-09-12T00:53:16;99813.09;;;20.93;69.18
46583;BME280;32309;48.858;8.252;2023-09-12T00:55:21;99809.16;;;20.89;70.77
46583;BME280;32309;48.858;8.252;2023-09-12T00:57:24;99809.50;;;20.86;70.79
46583;BME280;32309;48.858;8.252;2023-09-12T01:01:52;99812.47;;;20.74;72.81
46583;BME280;32309;48.858;8.252;2023-09-12T01:04:02;99813.47;;;20.73;73.11
46583;BME280;32309;48.858;8.252;2023-09-12T01:06:06;99813.31;;;20.75;73.55
46583;BME280;32309;48.858;8.252;2023-09-12T01:08:10;99814.97;;;20.76;73.59
46583;BME280;32309;48.858;8.252;2023-09-12T01:10:11;99809.69;;;20.76;73.35
46583;BME280;32309;48.858;8.252;2023-09-12T01:12:24;99812.16;;;20.77;73.64
46583;BME280;32309;48.858;8.252;2023-09-12T01:14:32;99815.09;;;20.74;74.11
46583;BME280;32309;48.858;8.252;2023-09-12T01:16:45;99816.25;;;20.72;72.36
46583;BME280;32309;48.858;8.252;2023-09-12T01:18:51;99817.09;;;20.72;74.35
46583;BME280;32309;48.858;8.252;2023-09-12T01:23:30;99808.22;;;20.73;74.23
46583;BME280;32309;48.858;8.252;2023-09-12T01:28:16;99822.53;;;20.71;74.01
46583;BME280;32309;48.858;8.252;2023-09-12T01:30:22;99812.28;;;20.68;73.79
46583;BME280;32309;48.858;8.252;2023-09-12T01:32:36;99810.66;;;20.67;72.48
46583;BME280;32309;48.858;8.252;2023-09-12T01:34:59;99804.91;;;20.63;72.64
46583;BME280;32309;48.858;8.252;2023-09-12T01:37:02;99801.41;;;20.62;73.35
46583;BME280;32309;48.858;8.252;2023-09-12T01:39:09;99807.03;;;20.59;73.30
46583;BME280;32309;48.858;8.252;2023-09-12T01:41:16;99807.19;;;20.58;72.97
46583;BME280;32309;48.858;8.252;2023-09-12T01:43:29;99811.31;;;20.52;73.95
46583;BME280;32309;48.858;8.252;2023-09-12T01:45:41;99810.66;;;20.50;74.32
46583;BME280;32309;48.858;8.252;2023-09-12T01:47:56;99808.19;;;20.49;74.81
46583;BME280;32309;48.858;8.252;2023-09-12T01:50:03;99796.97;;;20.47;74.40
46583;BME280;32309;48.858;8.252;2023-09-12T01:52:16;99797.16;;;20.45;74.54
46583;BME280;32309;48.858;8.252;2023-09-12T01:54:33;99793.53;;;20.46;74.18
46583;BME280;32309;48.858;8.252;2023-09-12T01:56:35;99786.78;;;20.43;74.29
46583;BME280;32309;48.858;8.252;2023-09-12T01:58:36;99791.06;;;20.44;74.36
46583;BME280;32309;48.858;8.252;2023-09-12T02:00:49;99799.44;;;20.40;74.89
46583;BME280;32309;48.858;8.252;2023-09-12T02:02:55;99799.13;;;20.35;74.86
46583;BME280;32309;48.858;8.252;2023-09-12T02:07:18;99816.06;;;20.32;74.59
46583;BME280;32309;48.858;8.252;2023-09-12T02:09:31;99805.53;;;20.32;74.93
46583;BME280;32309;48.858;8.252;2023-09-12T02:11:39;99804.88;;;20.30;75.06
46583;BME280;32309;48.858;8.252;2023-09-12T02:13:47;99799.94;;;20.27;72.67
46583;BME280;32309;48.858;8.252;2023-09-12T02:15:47;99805.88;;;20.29;75.24
46583;BME280;32309;48.858;8.252;2023-09-12T02:18:13;99807.34;;;20.32;74.97
46583;BME280;32309;48.858;8.252;2023-09-12T02:20:19;99810.31;;;20.28;75.20
46583;BME280;32309;48.858;8.252;2023-09-12T02:22:22;99807.00;;;20.26;74.45
46583;BME280;32309;48.858;8.252;2023-09-12T02:24:24;99807.00;;;20.26;75.01
46583;BME280;32309;48.858;8.252;2023-09-12T02:26:27;99813.25;;;20.25;75.08
46583;BME280;32309;48.858;8.252;2023-09-12T02:28:58;99822.81;;;20.26;74.97
46583;BME280;32309;48.858;8.252;2023-09-12T02:31:11;99811.28;;;20.27;74.73
46583;BME280;32309;48.858;8.252;2023-09-12T02:33:26;99814.56;;;20.29;75.11
46583;BME280;32309;48.858;8.252;2023-09-12T02:35:33;99814.25;;;20.33;75.06
46583;BME280;32309;48.858;8.252;2023-09-12T02:37:45;99814.91;;;20.35;73.64
46583;BME280;32309;48.858;8.252;2023-09-12T02:39:50;99819.34;;;20.34;74.48
46583;BME280;32309;48.858;8.252;2023-09-12T02:42:11;99823.13;;;20.32;74.57
46583;BME280;32309;48.858;8.252;2023-09-12T02:44:24;99818.69;;;20.32;74.97
46583;BME280;32309;48.858;8.252;2023-09-12T02:46:37;99815.25;;;20.32;74.73
46583;BME280;32309;48.858;8.252;2023-09-12T02:48:46;99813.59;;;20.31;74.64
46583;BME280;32309;48.858;8.252;2023-09-12T02:50:59;99805.69;;;20.31;74.50
46583;BME280;32309;48.858;8.252;2023-09-12T02:52:59;99812.63;;;20.32;74.53
46583;BME280;32309;48.858;8.252;2023-09-12T02:55:02;99812.78;;;20.30;74.55
46583;BME280;32309;48.858;8.252;2023-09-12T02:57:10;99810.44;;;20.27;74.78
46583;BME280;32309;48.858;8.252;2023-09-12T02:59:21;99809.81;;;20.25;75.07
46583;BME280;32309;48.858;8.252;2023-09-12T03:01:28;99816.38;;;20.21;74.81
46583;BME280;32309;48.858;8.252;2023-09-12T03:03:38;99812.78;;;20.22;74.96
46583;BME280;32309;48.858;8.252;2023-09-12T03:06:07;99807.66;;;20.20;75.06
46583;BME280;32309;48.858;8.252;2023-09-12T03:08:22;99817.84;;;20.15;75.33
46583;BME280;32309;48.858;8.252;2023-09-12T03:10:59;99814.56;;;20.13;75.48
46583;BME280;32309;48.858;8.252;2023-09-12T03:13:11;99810.09;;;20.14;76.12
46583;BME280;32309;48.858;8.252;2023-09-12T03:15:41;99811.13;;;20.13;75.54
46583;BME280;32309;48.858;8.252;2023-09-12T03:17:59;99809.13;;;20.15;74.59
46583;BME280;32309;48.858;8.252;2023-09-12T03:20:00;99807.31;;;20.15;75.94
46583;BME280;32309;48.858;8.252;2023-09-12T03:22:06;99809.94;;;20.15;75.37
46583;BME280;32309;48.858;8.252;2023-09-12T03:24:18;99805.84;;;20.13;75.65
46583;BME280;32309;48.858;8.252;2023-09-12T03:26:28;99812.75;;;20.14;75.17
46583;BME280;32309;48.858;8.252;2023-09-12T03:29:04;99813.06;;;20.10;75.44
46583;BME280;32309;48.858;8.252;2023-09-12T03:31:34;99806.84;;;20.11;75.66
46583;BME280;32309;48.858;8.252;2023-09-12T03:33:55;99806.84;;;20.11;73.35
46583;BME280;32309;48.858;8.252;2023-09-12T03:36:10;99802.22;;;20.14;75.12
46583;BME280;32309;48.858;8.252;2023-09-12T03:38:21;99798.78;;;20.13;74.46
46583;BME280;32309;48.858;8.252;2023-09-12T03:40:29;99794.50;;;20.12;74.27
46583;BME280;32309;48.858;8.252;2023-09-12T03:42:38;99798.94;;;20.11;73.96
46583;BME280;32309;48.858;8.252;2023-09-12T03:45:09;99801.56;;;20.11;74.40
46583;BME280;32309;48.858;8.252;2023-09-12T03:47:20;99800.59;;;20.13;74.85
46583;BME280;32309;48.858;8.252;2023-09-12T03:49:32;99803.34;;;20.11;74.79
46583;BME280;32309;48.858;8.252;2023-09-12T03:52:03;99810.59;;;20.09;75.03
46583;BME280;32309;48.858;8.252;2023-09-12T03:54:13;99803.84;;;20.06;75.29
46583;BME280;32309;48.858;8.252;2023-09-12T03:56:21;99802.22;;;20.05;75.34
46583;BME280;32309;48.858;8.252;2023-09-12T03:58:26;99799.56;;;20.05;74.73
46583;BME280;32309;48.858;8.252;2023-09-12T04:00:54;99802.38;;;20.04;75.29
46583;BME280;32309;48.858;8.252;2023-09-12T04:03:04;99803.34;;;20.03;75.46
46583;BME280;32309;48.858;8.252;2023-09-12T04:05:16;99798.44;;;20.00;75.45
46583;BME280;32309;48.858;8.252;2023-09-12T04:07:26;99795.78;;;20.00;75.85
46583;BME280;32309;48.858;8.252;2023-09-12T04:09:46;99802.84;;;19.99;75.79
46583;BME280;32309;48.858;8.252;2023-09-12T04:11:49;99807.28;;;19.99;76.04
46583;BME280;32309;48.858;8.252;2023-09-12T04:14:01;99796.78;;;19.99;74.87
46583;BME280;32309;48.858;8.252;2023-09-12T04:16:02;99812.56;;;19.99;76.57
46583;BME280;32309;48.858;8.252;2023-09-12T04:34:11;99818.44;;;19.92;76.70
46583;BME280;32309;48.858;8.252;2023-09-12T04:36:14;99823.72;;;19.92;76.94
46583;BME280;32309;48.858;8.252;2023-09-12T04:38:17;99815.81;;;19.92;75.88
46583;BME280;32309;48.858;8.252;2023-09-12T04:40:27;99823.72;;;19.92;77.02
46583;BME280;32309;48.858;8.252;2023-09-12T04:42:46;99824.69;;;19.91;76.58
46583;BME280;32309;48.858;8.252;2023-09-12T04:45:07;99824.84;;;19.90;76.77
46583;BME280;32309;48.858;8.252;2023-09-12T04:47:17;99828.47;;;19.89;77.01
46583;BME280;32309;48.858;8.252;2023-09-12T04:49:23;99827.81;;;19.87;77.05
46583;BME280;32309;48.858;8.252;2023-09-12T04:51:33;99829.63;;;19.86;76.92
46583;BME280;32309;48.858;8.252;2023-09-12T04:53:56;99827.97;;;19.85;75.04
46583;BME280;32309;48.858;8.252;2023-09-12T04:56:10;99826.16;;;19.86;77.35
46583;BME280;32309;48.858;8.252;2023-09-12T04:58:10;99837.50;;;19.86;77.15
46583;BME280;32309;48.858;8.252;2023-09-12T05:00:13;99834.22;;;19.84;77.24
46583;BME280;32309;48.858;8.252;2023-09-12T05:02:22;99843.06;;;19.83;76.49
46583;BME280;32309;48.858;8.252;2023-09-12T05:04:26;99838.13;;;19.80;76.78
46583;BME280;32309;48.858;8.252;2023-09-12T05:06:29;99844.66;;;19.76;77.02
46583;BME280;32309;48.858;8.252;2023-09-12T05:08:37;99837.59;;;19.76;77.41
46583;BME280;32309;48.858;8.252;2023-09-12T05:10:38;99841.19;;;19.75;77.20
46583;BME280;32309;48.858;8.252;2023-09-12T05:12:43;99842.34;;;19.73;77.23
46583;BME280;32309;48.858;8.252;2023-09-12T05:14:48;99837.25;;;19.71;77.35
46583;BME280;32309;48.858;8.252;2023-09-12T05:16:52;99843.66;;;19.69;77.49
46583;BME280;32309;48.858;8.252;2023-09-12T05:19:07;99839.53;;;19.66;77.03
46583;BME280;32309;48.858;8.252;2023-09-12T05:21:10;99845.78;;;19.65;77.40
46583;BME280;32309;48.858;8.252;2023-09-12T05:23:13;99849.38;;;19.64;77.86
46583;BME280;32309;48.858;8.252;2023-09-12T05:25:24;99845.91;;;19.63;78.01
46583;BME280;32309;48.858;8.252;2023-09-12T05:27:37;99854.66;;;19.64;77.52
46583;BME280;32309;48.858;8.252;2023-09-12T05:30:12;99852.47;;;19.59;77.94
46583;BME280;32309;48.858;8.252;2023-09-12T05:32:15;99855.94;;;19.60;77.94
46583;BME280;32309;48.858;8.252;2023-09-12T05:34:31;99853.44;;;19.58;77.37
46583;BME280;32309;48.858;8.252;2023-09-12T05:36:34;99858.88;;;19.57;77.79
46583;BME280;32309;48.858;8.252;2023-09-12T05:38:34;99858.06;;;19.56;77.89
46583;BME280;32309;48.858;8.252;2023-09-12T05:40:56;99851.81;;;19.57;78.17
46583;BME280;32309;48.858;8.252;2023-09-12T05:45:47;99845.88;;;19.55;76.01
46583;BME280;32309;48.858;8.252;2023-09-12T05:48:25;99838.31;;;19.52;76.59
46583;BME280;32309;48.858;8.252;2023-09-12T05:50:25;99847.69;;;19.55;76.19
46583;BME280;32309;48.858;8.252;2023-09-12T05:52:26;99839.97;;;19.53;76.51
46583;BME280;32309;48.858;8.252;2023-09-12T05:54:26;99836.34;;;19.54;76.47
46583;BME280;32309;48.858;8.252;2023-09-12T05:56:26;99842.28;;;19.56;75.54
46583;BME280;32309;48.858;8.252;2023-09-12T05:58:28;99840.31;;;19.58;75.60
46583;BME280;32309;48.858;8.252;2023-09-12T06:00:28;99844.59;;;19.59;75.43
46583;BME280;32309;48.858;8.252;2023-09-12T06:02:28;99843.78;;;19.59;75.33
46583;BME280;32309;48.858;8.252;2023-09-12T06:04:39;99852.22;;;19.79;75.45
46583;BME280;32309;48.858;8.252;2023-09-12T06:07:10;99850.06;;;20.09;74.55
46583;BME280;32309;48.858;8.252;2023-09-12T06:09:16;99854.22;;;20.28;74.08
46583;BME280;32309;48.858;8.252;2023-09-12T06:11:34;99851.63;;;20.44;73.52
46583;BME280;32309;48.858;8.252;2023-09-12T06:13:34;99855.91;;;20.54;72.76
46583;BME280;32309;48.858;8.252;2023-09-12T06:15:37;99863.47;;;20.57;72.72
46583;BME280;32309;48.858;8.252;2023-09-12T06:17:53;99868.41;;;20.60;72.42
46583;BME280;32309;48.858;8.252;2023-09-12T06:28:54;99872.22;;;20.74;71.32
46583;BME280;32309;48.858;8.252;2023-09-12T06:30:55;99871.88;;;20.77;71.75
46583;BME280;32309;48.858;8.252;2023-09-12T06:32:57;99872.56;;;20.79;71.83
46583;BME280;32309;48.858;8.252;2023-09-12T06:34:57;99874.84;;;20.82;71.87
46583;BME280;32309;48.858;8.252;2023-09-12T06:36:57;99867.78;;;20.83;71.80
46583;BME280;32309;48.858;8.252;2023-09-12T06:38:57;99872.41;;;20.81;71.85
46583;BME280;32309;48.858;8.252;2023-09-12T06:45:18;99874.69;;;20.84;71.75
46583;BME280;32309;48.858;8.252;2023-09-12T06:47:18;99876.16;;;20.86;72.00
46583;BME280;32309;48.858;8.252;2023-09-12T06:49:18;99871.22;;;20.91;72.17
46583;BME280;32309;48.858;8.252;2023-09-12T06:51:20;99875.84;;;20.98;71.92
46583;BME280;32309;48.858;8.252;2023-09-12T06:53:25;99870.72;;;21.04;71.83
46583;BME280;32309;48.858;8.252;2023-09-12T06:55:28;99875.66;;;21.07;71.77
46583;BME280;32309;48.858;8.252;2023-09-12T06:57:28;99876.34;;;21.09;71.25
46583;BME280;32309;48.858;8.252;2023-09-12T06:59:29;99876.16;;;21.11;71.43
46583;BME280;32309;48.858;8.252;2023-09-12T08:48:01;99907.06;;;23.46;66.82
46583;BME280;32309;48.858;8.252;2023-09-12T08:50:13;99903.06;;;23.50;66.77
46583;BME280;32309;48.858;8.252;2023-09-12T08:52:30;99904.25;;;23.47;66.92
46583;BME280;32309;48.858;8.252;2023-09-12T08:54:33;99903.78;;;23.43;67.26
46583;BME280;32309;48.858;8.252;2023-09-12T08:57:14;99900.69;;;23.40;67.11
46583;BME280;32309;48.858;8.252;2023-09-12T09:29:18;99879.34;;;24.23;65.33
46583;BME280;32309;48.858;8.252;2023-09-12T09:31:51;99875.22;;;24.35;65.55
46583;BME280;32309;48.858;8.252;2023-09-12T09:34:22;99873.69;;;24.48;64.93
46583;BME280;32309;48.858;8.252;2023-09-12T09:37:21;99879.06;;;24.54;64.07
46583;BME280;32309;48.858;8.252;2023-09-12T09:39:51;99879.69;;;24.56;64.78
46583;BME280;32309;48.858;8.252;2023-09-12T09:48:23;99884.41;;;24.61;63.47
46583;BME280;32309;48.858;8.252;2023-09-12T09:51:07;99888.91;;;24.61;63.09
46583;BME280;32309;48.858;8.252;2023-09-12T09:59:06;99880.09;;;24.75;64.47
46583;BME280;32309;48.858;8.252;2023-09-12T10:04:29;99869.88;;;25.00;64.45
46583;BME280;32309;48.858;8.252;2023-09-12T10:06:51;99871.97;;;25.05;63.94
46583;BME280;32309;48.858;8.252;2023-09-12T10:09:30;99874.63;;;25.05;64.09
46583;BME280;32309;48.858;8.252;2023-09-12T10:11:44;99873.75;;;24.98;63.93
46583;BME280;32309;48.858;8.252;2023-09-12T10:14:48;99862.34;;;24.97;63.38
46583;BME280;32309;48.858;8.252;2023-09-12T10:20:47;99860.97;;;25.08;63.14
46583;BME280;32309;48.858;8.252;2023-09-12T10:29:49;99852.56;;;25.33;62.44
46583;BME280;32309;48.858;8.252;2023-09-12T10:32:05;99849.19;;;25.46;62.97
46583;BME280;32309;48.858;8.252;2023-09-12T10:37:29;99847.22;;;25.61;60.57
46583;BME280;32309;48.858;8.252;2023-09-12T10:42:53;99833.00;;;25.82;58.56
46583;BME280;32309;48.858;8.252;2023-09-12T10:45:18;99829.94;;;25.85;58.15
46583;BME280;32309;48.858;8.252;2023-09-12T10:47:25;99831.22;;;25.89;59.54
46583;BME280;32309;48.858;8.252;2023-09-12T10:49:29;99830.81;;;25.92;58.18
46583;BME280;32309;48.858;8.252;2023-09-12T10:51:30;99831.22;;;25.96;56.67
46583;BME280;32309;48.858;8.252;2023-09-12T10:53:35;99828.16;;;25.99;57.89
46583;BME280;32309;48.858;8.252;2023-09-12T10:55:35;99829.44;;;26.03;57.30
46583;BME280;32309;48.858;8.252;2023-09-12T10:57:40;99830.88;;;26.06;58.32
46583;BME280;32309;48.858;8.252;2023-09-12T11:04:32;99818.81;;;26.17;57.77
46583;BME280;32309;48.858;8.252;2023-09-12T11:06:37;99821.50;;;26.23;58.57
46583;BME280;32309;48.858;8.252;2023-09-12T11:08:38;99820.09;;;26.28;57.90
46583;BME280;32309;48.858;8.252;2023-09-12T11:10:40;99816.59;;;26.34;59.10
46583;BME280;32309;48.858;8.252;2023-09-12T11:12:41;99818.66;;;26.38;57.65
46583;BME280;32309;48.858;8.252;2023-09-12T11:21:32;99813.56;;;26.77;56.46
46583;BME280;32309;48.858;8.252;2023-09-12T11:23:33;99802.72;;;26.85;55.05
46583;BME280;32309;48.858;8.252;2023-09-12T11:25:35;99805.19;;;26.94;57.35
46583;BME280;32309;48.858;8.252;2023-09-12T11:27:45;99801.66;;;27.00;55.46
46583;BME280;32309;48.858;8.252;2023-09-12T11:30:00;99808.63;;;27.01;52.76
46583;BME280;32309;48.858;8.252;2023-09-12T11:32:06;99800.03;;;27.05;52.69
46583;BME280;32309;48.858;8.252;2023-09-12T11:34:08;99800.84;;;27.13;54.03
46583;BME280;32309;48.858;8.252;2023-09-12T11:36:12;99795.69;;;27.24;53.75
46583;BME280;32309;48.858;8.252;2023-09-12T11:38:25;99797.69;;;27.29;51.22
46583;BME280;32309;48.858;8.252;2023-09-12T11:42:33;99797.88;;;27.41;49.30
46583;BME280;32309;48.858;8.252;2023-09-12T11:44:49;99799.13;;;27.45;51.54
46583;BME280;32309;48.858;8.252;2023-09-12T11:46:51;99796.22;;;27.53;47.93
46583;BME280;32309;48.858;8.252;2023-09-12T11:49:03;99787.59;;;27.58;47.08
46583;BME280;32309;48.858;8.252;2023-09-12T11:51:06;99784.75;;;27.60;49.37
46583;BME280;32309;48.858;8.252;2023-09-12T11:53:12;99781.63;;;27.63;48.01
46583;BME280;32309;48.858;8.252;2023-09-12T11:55:21;99785.53;;;27.60;47.61
46583;BME280;32309;48.858;8.252;2023-09-12T11:57:26;99787.78;;;27.63;45.46
46583;BME280;32309;48.858;8.252;2023-09-12T11:59:29;99790.63;;;27.68;48.28
46583;BME280;32309;48.858;8.252;2023-09-12T12:01:46;99781.78;;;27.75;43.01
46583;BME280;32309;48.858;8.252;2023-09-12T12:03:54;99786.88;;;27.76;43.17
46583;BME280;32309;48.858;8.252;2023-09-12T12:05:59;99787.53;;;27.71;41.56
46583;BME280;32309;48.858;8.252;2023-09-12T12:08:00;99785.00;;;27.83;44.61
46583;BME280;32309;48.858;8.252;2023-09-12T12:10:03;99777.56;;;27.92;44.15
46583;BME280;32309;48.858;8.252;2023-09-12T12:12:08;99783.88;;;27.98;40.52
46583;BME280;32309;48.858;8.252;2023-09-12T12:14:10;99779.38;;;28.05;40.35
46583;BME280;32309;48.858;8.252;2023-09-12T12:16:15;99781.19;;;28.11;42.28
46583;BME280;32309;48.858;8.252;2023-09-12T12:18:16;99780.19;;;28.05;43.16
46583;BME280;32309;48.858;8.252;2023-09-12T12:20:17;99778.75;;;28.03;42.60
46583;BME280;32309;48.858;8.252;2023-09-12T12:22:17;99769.47;;;28.12;40.52
46583;BME280;32309;48.858;8.252;2023-09-12T12:24:18;99766.75;;;28.19;41.30
46583;BME280;32309;48.858;8.252;2023-09-12T12:26:18;99763.72;;;28.15;40.75
46583;BME280;32309;48.858;8.252;2023-09-12T12:28:19;99763.72;;;28.15;42.96
46583;BME280;32309;48.858;8.252;2023-09-12T12:30:20;99766.41;;;28.15;43.91
46583;BME280;32309;48.858;8.252;2023-09-12T12:32:20;99766.75;;;28.26;44.50
46583;BME280;32309;48.858;8.252;2023-09-12T12:34:23;99762.00;;;28.28;42.31
46583;BME280;32309;48.858;8.252;2023-09-12T12:36:23;99758.00;;;28.37;42.38
46583;BME280;32309;48.858;8.252;2023-09-12T12:38:24;99750.56;;;28.46;41.83
46583;BME280;32309;48.858;8.252;2023-09-12T12:40:24;99752.16;;;28.53;42.48
46583;BME280;32309;48.858;8.252;2023-09-12T12:42:25;99750.06;;;28.55;43.14
46583;BME280;32309;48.858;8.252;2023-09-12T12:44:33;99744.72;;;28.55;41.84
46583;BME280;32309;48.858;8.252;2023-09-12T12:46:50;99746.38;;;28.56;41.71
46583;BME280;32309;48.858;8.252;2023-09-12T12:48:53;99749.41;;;28.60;42.79
46583;BME280;32309;48.858;8.252;2023-09-12T12:50:53;99748.97;;;28.63;43.49
46583;BME280;32309;48.858;8.252;2023-09-12T12:52:53;99741.97;;;28.69;40.87
46583;BME280;32309;48.858;8.252;2023-09-12T12:54:54;99738.19;;;28.77;41.30
46583;BME280;32309;48.858;8.252;2023-09-12T12:57:03;99741.38;;;28.85;41.72
46583;BME280;32309;48.858;8.252;2023-09-12T12:59:05;99741.25;;;28.99;40.22
46583;BME280;32309;48.858;8.252;2023-09-12T13:01:08;99744.22;;;29.09;41.27
46583;BME280;32309;48.858;8.252;2023-09-12T13:03:09;99744.59;;;29.13;41.44
46583;BME280;32309;48.858;8.252;2023-09-12T13:05:19;99730.56;;;29.17;39.82
46583;BME280;32309;48.858;8.252;2023-09-12T13:07:21;99730.47;;;29.24;42.60
46583;BME280;32309;48.858;8.252;2023-09-12T13:09:21;99725.75;;;29.26;40.91
46583;BME280;32309;48.858;8.252;2023-09-12T13:11:21;99718.72;;;29.32;42.96
46583;BME280;32309;48.858;8.252;2023-09-12T13:13:22;99717.22;;;29.36;40.70
46583;BME280;32309;48.858;8.252;2023-09-12T13:15:22;99718.63;;;29.38;40.96
46583;BME280;32309;48.858;8.252;2023-09-12T13:17:25;99715.94;;;29.38;39.54
46583;BME280;32309;48.858;8.252;2023-09-12T13:19:26;99713.88;;;29.41;42.57
46583;BME280;32309;48.858;8.252;2023-09-12T13:25:54;99708.97;;;29.37;37.85
46583;BME280;32309;48.858;8.252;2023-09-12T13:27:55;99705.28;;;29.38;37.43
46583;BME280;32309;48.858;8.252;2023-09-12T13:29:55;99703.88;;;29.36;39.96
46583;BME280;32309;48.858;8.252;2023-09-12T13:31:58;99705.41;;;29.44;38.23
46583;BME280;32309;48.858;8.252;2023-09-12T13:33:58;99696.50;;;29.50;38.52
46583;BME280;32309;48.858;8.252;2023-09-12T13:35:58;99689.66;;;29.54;39.15
46583;BME280;32309;48.858;8.252;2023-09-12T13:37:59;99693.88;;;29.62;39.85
46583;BME280;32309;48.858;8.252;2023-09-12T13:39:59;99688.06;;;29.65;39.45
46583;BME280;32309;48.858;8.252;2023-09-12T13:41:59;99686.56;;;29.69;37.93
46583;BME280;32309;48.858;8.252;2023-09-12T13:44:03;99689.59;;;29.73;37.31
46583;BME280;32309;48.858;8.252;2023-09-12T13:46:03;99687.97;;;29.71;39.02
46583;BME280;32309;48.858;8.252;2023-09-12T13:48:04;99686.69;;;29.74;41.29
46583;BME280;32309;48.858;8.252;2023-09-12T13:50:08;99683.53;;;29.77;37.81
46583;BME280;32309;48.858;8.252;2023-09-12T13:52:08;99681.72;;;29.78;37.57
46583;BME280;32309;48.858;8.252;2023-09-12T13:54:11;99677.28;;;29.83;39.26
46583;BME280;32309;48.858;8.252;2023-09-12T13:56:14;99670.91;;;29.84;38.09
46583;BME280;32309;48.858;8.252;2023-09-12T13:58:17;99672.34;;;29.87;37.97
46583;BME280;32309;48.858;8.252;2023-09-12T14:00:21;99669.19;;;29.90;38.54
46583;BME280;32309;48.858;8.252;2023-09-12T14:02:21;99665.63;;;29.96;38.64
46583;BME280;32309;48.858;8.252;2023-09-12T14:04:22;99670.72;;;29.98;38.02
46583;BME280;32309;48.858;8.252;2023-09-12T14:06:22;99669.31;;;29.95;37.94
46583;BME280;32309;48.858;8.252;2023-09-12T14:08:22;99665.84;;;29.95;38.23
46583;BME280;32309;48.858;8.252;2023-09-12T14:10:23;99672.22;;;29.94;37.77
46583;BME280;32309;48.858;8.252;2023-09-12T14:12:23;99660.16;;;29.91;38.44
46583;BME280;32309;48.858;8.252;2023-09-12T14:14:24;99663.06;;;29.90;37.99
46583;BME280;32309;48.858;8.252;2023-09-12T14:16:24;99660.63;;;29.88;37.43
46583;BME280;32309;48.858;8.252;2023-09-12T14:18:27;99665.34;;;29.86;38.55
46583;BME280;32309;48.858;8.252;2023-09-12T14:20:28;99661.88;;;29.85;36.01
46583;BME280;32309;48.858;8.252;2023-09-12T14:22:28;99656.09;;;29.88;36.71
46583;BME280;32309;48.858;8.252;2023-09-12T14:24:31;99663.06;;;29.90;37.87
46583;BME280;32309;48.858;8.252;2023-09-12T14:26:32;99659.56;;;29.89;39.75
46583;BME280;32309;48.858;8.252;2023-09-12T14:28:32;99662.03;;;29.91;36.43
46583;BME280;32309;48.858;8.252;2023-09-12T14:30:34;99662.03;;;29.91;37.50
46583;BME280;32309;48.858;8.252;2023-09-12T14:32:36;99666.75;;;29.88;36.16
46583;BME280;32309;48.858;8.252;2023-09-12T14:34:37;99665.72;;;29.90;38.95
46583;BME280;32309;48.858;8.252;2023-09-12T14:36:37;99666.75;;;29.88;38.16
46583;BME280;32309;48.858;8.252;2023-09-12T14:38:38;99663.13;;;29.83;39.02
46583;BME280;32309;48.858;8.252;2023-09-12T14:40:38;99669.03;;;29.85;37.02
46583;BME280;32309;48.858;8.252;2023-09-12T14:42:39;99669.03;;;29.85;36.05
46583;BME280;32309;48.858;8.252;2023-09-12T14:44:40;99668.25;;;29.84;36.08
46583;BME280;32309;48.858;8.252;2023-09-12T14:46:40;99668.00;;;29.86;36.19
46583;BME280;32309;48.858;8.252;2023-09-12T14:48:40;99663.84;;;29.90;36.38
46583;BME280;32309;48.858;8.252;2023-09-12T14:50:41;99660.94;;;29.92;35.46
46583;BME280;32309;48.858;8.252;2023-09-12T14:52:48;99654.00;;;29.91;35.15
46583;BME280;32309;48.858;8.252;2023-09-12T14:54:49;99654.56;;;29.93;34.38
46583;BME280;32309;48.858;8.252;2023-09-12T14:56:49;99656.78;;;29.96;34.04
46583;BME280;32309;48.858;8.252;2023-09-12T14:58:51;99655.50;;;29.98;34.90
46583;BME280;32309;48.858;8.252;2023-09-12T15:00:51;99661.91;;;29.97;34.66
46583;BME280;32309;48.858;8.252;2023-09-12T15:02:54;99658.16;;;29.98;34.44
46583;BME280;32309;48.858;8.252;2023-09-12T15:04:57;99642.97;;;29.99;33.03
46583;BME280;32309;48.858;8.252;2023-09-12T15:07:08;99639.25;;;30.00;33.07